Time;durP1;ratioP1;P1;durP2;ratioP2;P2;SDS_P1;SDS_P2;PMS_P1;PMS_P2;Temp;Humidity;BMP_temperature;BMP_pressure;BME280_temperature;BME280_humidity;BME280_pressure;Samples;Min_cycle;Max_cycle;Signal;HPM_P1;HPM_P2
2023/06/19 00:00:07;;;;;;;7.23;6.53;;;;;24.70;99826.00;;;;2068886;28;20460;-59
2023/06/19 00:01:07;;;;;;;7.25;6.55;;;;;24.70;99836.00;;;;2073044;28;20225;-58
2023/06/19 00:02:07;;;;;;;7.37;6.67;;;;;24.70;99830.00;;;;2068087;28;20397;-59
2023/06/19 00:03:08;;;;;;;7.17;6.50;;;;;24.70;99836.00;;;;2076195;28;20344;-58
2023/06/19 00:04:09;;;;;;;7.40;6.70;;;;;24.70;99841.00;;;;2059876;28;20330;-58
2023/06/19 00:05:09;;;;;;;6.97;6.37;;;;;24.70;99833.00;;;;2071983;28;20226;-59
2023/06/19 00:06:12;;;;;;;6.50;5.90;;;;;24.70;99831.00;;;;2074833;28;20468;-59
2023/06/19 00:07:12;;;;;;;7.32;6.63;;;;;24.70;99829.00;;;;2070447;28;20241;-59
2023/06/19 00:08:13;;;;;;;7.60;6.90;;;;;24.70;99858.00;;;;2077656;28;20262;-59
2023/06/19 00:09:13;;;;;;;6.73;6.13;;;;;24.70;99835.00;;;;2070630;28;20216;-58
2023/06/19 00:10:13;;;;;;;7.47;6.63;;;;;24.70;99831.00;;;;2074888;28;20217;-59
2023/06/19 00:11:14;;;;;;;7.73;6.53;;;;;24.70;99822.00;;;;2083376;28;20225;-59
2023/06/19 00:12:14;;;;;;;6.60;6.00;;;;;24.70;99824.00;;;;2079731;28;20224;-60
2023/06/19 00:13:14;;;;;;;6.90;6.30;;;;;24.70;99821.00;;;;2084413;28;20236;-58
2023/06/19 00:14:15;;;;;;;7.03;6.40;;;;;24.70;99824.00;;;;2063503;28;20210;-59
2023/06/19 00:15:15;;;;;;;7.67;6.70;;;;;24.70;99821.00;;;;2072886;28;20255;-59
2023/06/19 00:16:15;;;;;;;7.13;6.43;;;;;24.70;99825.00;;;;2082545;28;20213;-57
2023/06/19 00:17:16;;;;;;;5.50;5.00;;;;;24.90;99829.00;;;;2078043;28;20214;-59
2023/06/19 00:18:19;;;;;;;6.10;5.53;;;;;24.70;99825.00;;;;2083967;28;20334;-56
2023/06/19 00:19:19;;;;;;;5.97;5.38;;;;;24.60;99823.00;;;;2071439;28;20220;-56
2023/06/19 00:20:20;;;;;;;8.03;5.33;;;;;24.60;99820.00;;;;2084711;28;20243;-56
2023/06/19 00:21:20;;;;;;;6.10;5.30;;;;;24.60;99827.00;;;;2082032;28;20236;-56
2023/06/19 00:22:20;;;;;;;6.77;5.60;;;;;24.40;99827.00;;;;2079590;28;20264;-57
2023/06/19 00:23:21;;;;;;;6.87;5.70;;;;;24.70;99826.00;;;;2078849;28;20235;-56
2023/06/19 00:24:21;;;;;;;6.33;5.73;;;;;24.70;99827.00;;;;2072865;28;20742;-56
2023/06/19 00:25:22;;;;;;;6.60;5.50;;;;;24.70;99832.00;;;;2080839;28;20220;-56
2023/06/19 00:26:23;;;;;;;19.20;6.10;;;;;24.70;99841.00;;;;2083297;28;20258;-56
2023/06/19 00:27:24;;;;;;;7.05;6.38;;;;;24.70;99826.00;;;;2077708;28;20229;-56
2023/06/19 00:28:24;;;;;;;5.83;5.27;;;;;24.70;99852.00;;;;2083379;28;20296;-56
2023/06/19 00:29:27;;;;;;;6.03;5.43;;;;;24.70;99825.00;;;;2066821;28;20679;-56
2023/06/19 00:30:32;;;;;;;6.70;5.95;;;;;24.70;99837.00;;;;2082630;28;20287;-57
2023/06/19 00:31:32;;;;;;;8.82;5.30;;;;;24.70;99831.00;;;;2083419;28;20236;-57
2023/06/19 00:32:46;;;;;;;5.50;5.07;;;;;24.70;99829.00;;;;2084223;28;20241;-56
2023/06/19 00:33:49;;;;;;;8.70;5.75;;;;;24.70;99831.00;;;;2081711;28;20250;-57
2023/06/19 00:34:49;;;;;;;5.90;5.40;;;;;24.70;99755.00;;;;2069749;28;20234;-56
2023/06/19 00:35:50;;;;;;;5.30;4.80;;;;;24.70;99836.00;;;;2080942;28;20568;-57
2023/06/19 00:36:57;;;;;;;6.10;5.60;;;;;24.70;99854.00;;;;2069834;28;20662;-57
2023/06/19 00:38:00;;;;;;;6.78;6.18;;;;;24.70;99834.00;;;;2071755;28;20452;-56
2023/06/19 00:39:00;;;;;;;6.17;5.57;;;;;24.70;99834.00;;;;2079991;28;20216;-56
2023/06/19 00:40:01;;;;;;;6.33;5.60;;;;;24.70;99833.00;;;;2070324;28;20490;-56
2023/06/19 00:41:01;;;;;;;6.03;5.33;;;;;24.70;99830.00;;;;2080016;28;20237;-57
2023/06/19 00:42:01;;;;;;;7.10;5.60;;;;;24.30;99851.00;;;;2079651;28;20217;-57
2023/06/19 00:43:02;;;;;;;6.00;5.50;;;;;24.70;99838.00;;;;2080301;28;20202;-56
2023/06/19 00:44:03;;;;;;;5.63;5.13;;;;;24.70;99779.00;;;;2084855;28;20217;-56
2023/06/19 00:45:04;;;;;;;6.17;5.63;;;;;24.70;99705.00;;;;2047338;28;20465;-56
2023/06/19 00:46:04;;;;;;;6.30;5.70;;;;;24.70;99840.00;;;;2056557;28;20215;-56
2023/06/19 00:47:05;;;;;;;6.30;5.80;;;;;24.70;99839.00;;;;2072217;28;20232;-57
2023/06/19 00:48:05;;;;;;;6.13;5.53;;;;;24.70;99843.00;;;;2072148;28;20210;-56
2023/06/19 00:49:06;;;;;;;5.97;5.47;;;;;24.70;99825.00;;;;2066075;28;20210;-57
2023/06/19 00:50:06;;;;;;;6.27;5.77;;;;;24.70;99853.00;;;;2066646;28;20293;-56
2023/06/19 00:51:06;;;;;;;5.60;5.10;;;;;24.70;99849.00;;;;2055045;28;20239;-57
2023/06/19 00:52:07;;;;;;;6.43;5.77;;;;;24.70;99846.00;;;;2063020;28;20940;-56
2023/06/19 00:53:08;;;;;;;6.27;5.67;;;;;24.70;99843.00;;;;2070381;28;20780;-57
2023/06/19 00:54:08;;;;;;;6.50;5.90;;;;;24.70;99849.00;;;;2050711;28;20211;-56
2023/06/19 00:55:09;;;;;;;6.40;5.90;;;;;24.70;99779.00;;;;2062443;28;20473;-57
2023/06/19 00:56:09;;;;;;;6.43;5.87;;;;;24.70;99841.00;;;;2065661;28;20666;-56
2023/06/19 00:57:10;;;;;;;5.70;5.27;;;;;24.70;99851.00;;;;2082594;28;20260;-57
2023/06/19 00:58:10;;;;;;;6.10;5.60;;;;;24.70;99847.00;;;;2068383;28;20278;-57
2023/06/19 00:59:18;;;;;;;6.07;5.43;;;;;24.50;99848.00;;;;2057453;28;20363;-57
2023/06/19 01:00:18;;;;;;;5.88;5.30;;;;;24.70;99849.00;;;;2076477;28;20234;-57
2023/06/19 01:01:20;;;;;;;6.70;6.10;;;;;24.70;99851.00;;;;2073985;28;20294;-57
2023/06/19 01:02:23;;;;;;;5.70;5.20;;;;;24.70;99849.00;;;;2070951;28;20221;-57
2023/06/19 01:03:26;;;;;;;6.75;6.03;;;;;24.70;99851.00;;;;2067359;28;20217;-57
2023/06/19 01:04:26;;;;;;;5.97;5.47;;;;;24.80;99858.00;;;;2067069;28;20290;-58
2023/06/19 01:05:27;;;;;;;7.30;6.60;;;;;24.80;99848.00;;;;2086974;28;20212;-56
2023/06/19 01:06:29;;;;;;;6.10;5.07;;;;;24.80;99853.00;;;;2072938;28;20244;-57
2023/06/19 01:07:58;;;;;;;6.00;5.50;;;;;24.80;99852.00;;;;2062767;28;20230;-57
2023/06/19 01:09:02;;;;;;;7.07;6.00;;;;;24.80;99855.00;;;;2064459;28;20573;-58
2023/06/19 01:10:05;;;;;;;8.27;5.80;;;;;24.80;99849.00;;;;2047127;28;21028;-56
2023/06/19 01:11:05;;;;;;;5.87;5.37;;;;;24.70;99850.00;;;;2060419;28;20223;-56
2023/06/19 01:12:19;;;;;;;5.90;5.40;;;;;24.70;99856.00;;;;2074829;28;20456;-57
2023/06/19 01:13:23;;;;;;;6.00;5.50;;;;;24.70;99860.00;;;;2075038;28;20275;-57
2023/06/19 01:14:38;;;;;;;6.20;5.70;;;;;24.70;99852.00;;;;2063456;28;20302;-57
2023/06/19 01:15:38;;;;;;;6.18;5.70;;;;;24.70;99829.00;;;;2065319;28;20214;-57
2023/06/19 01:16:39;;;;;;;6.03;5.50;;;;;24.80;99852.00;;;;2074857;28;20228;-56
2023/06/19 01:17:39;;;;;;;6.20;5.60;;;;;24.80;99861.00;;;;2066116;28;20210;-57
2023/06/19 01:18:39;;;;;;;5.97;5.47;;;;;24.80;99846.00;;;;2069240;28;20209;-57
2023/06/19 01:19:40;;;;;;;7.37;5.87;;;;;24.70;99847.00;;;;2059917;28;20313;-56
2023/06/19 01:20:40;;;;;;;6.00;5.50;;;;;24.80;99851.00;;;;2068123;28;20218;-56
2023/06/19 01:21:41;;;;;;;5.43;5.00;;;;;24.80;99861.00;;;;2064270;28;20210;-57
2023/06/19 01:22:44;;;;;;;5.90;5.40;;;;;24.70;99859.00;;;;2067075;28;20213;-56
2023/06/19 01:23:44;;;;;;;5.85;5.25;;;;;24.70;99860.00;;;;2080195;28;20293;-56
2023/06/19 01:24:44;;;;;;;5.83;5.33;;;;;24.70;99856.00;;;;2069802;28;20232;-56
2023/06/19 01:25:45;;;;;;;6.03;5.53;;;;;24.70;99870.00;;;;2074308;28;20280;-57
2023/06/19 01:26:45;;;;;;;6.00;5.50;;;;;24.80;99849.00;;;;2082688;28;20273;-57
2023/06/19 01:27:47;;;;;;;5.70;5.20;;;;;24.70;99853.00;;;;2084925;28;20212;-57
2023/06/19 01:28:47;;;;;;;6.10;5.60;;;;;24.80;99844.00;;;;2081656;28;20794;-56
2023/06/19 01:29:47;;;;;;;5.60;5.10;;;;;24.70;99852.00;;;;2058421;28;20222;-57
2023/06/19 01:30:48;;;;;;;5.87;5.37;;;;;24.70;99851.00;;;;2075045;28;20232;-56
2023/06/19 01:32:05;;;;;;;6.10;5.60;;;;;24.70;99847.00;;;;2065463;28;20341;-57
2023/06/19 01:33:16;;;;;;;6.35;5.80;;;;;24.70;99841.00;;;;2048543;28;20216;-56
2023/06/19 01:34:17;;;;;;;6.00;5.15;;;;;24.70;99838.00;;;;2044640;28;20767;-56
2023/06/19 01:35:19;;;;;;;6.10;5.60;;;;;24.80;99837.00;;;;2067703;28;20207;-58
2023/06/19 01:36:20;;;;;;;5.37;4.87;;;;;24.80;99831.00;;;;2069378;28;20469;-57
2023/06/19 01:37:20;;;;;;;6.20;5.60;;;;;24.80;99860.00;;;;2069534;28;20978;-58
2023/06/19 01:38:21;;;;;;;6.23;5.63;;;;;24.80;99835.00;;;;2069547;28;20668;-58
2023/06/19 01:39:21;;;;;;;6.43;5.93;;;;;24.70;99819.00;;;;2056639;28;20650;-57
2023/06/19 01:40:24;;;;;;;5.70;5.00;;;;;24.70;99832.00;;;;2059803;28;20218;-57
2023/06/19 01:41:24;;;;;;;6.00;5.50;;;;;24.70;99835.00;;;;2062874;28;20290;-57
2023/06/19 01:42:26;;;;;;;6.10;5.50;;;;;24.70;99829.00;;;;2059410;28;20615;-58
2023/06/19 01:43:27;;;;;;;6.13;5.47;;;;;24.70;99831.00;;;;2054399;28;20703;-57
2023/06/19 01:44:27;;;;;;;5.60;4.90;;;;;24.70;99822.00;;;;2048007;28;20223;-56
2023/06/19 01:45:28;;;;;;;5.67;5.10;;;;;24.60;99830.00;;;;2058391;28;21279;-57
2023/06/19 01:46:29;;;;;;;4.95;4.55;;;;;24.50;99830.00;;;;2060356;28;20234;-57
2023/06/19 01:47:29;;;;;;;4.87;4.47;;;;;24.50;99828.00;;;;2062883;28;20300;-56
2023/06/19 01:48:29;;;;;;;4.90;4.50;;;;;24.50;99833.00;;;;2076060;28;20228;-58
2023/06/19 01:49:30;;;;;;;4.87;4.47;;;;;24.50;99839.00;;;;2073735;28;20221;-58
2023/06/19 01:50:30;;;;;;;4.90;4.40;;;;;24.30;99837.00;;;;2075951;28;20308;-57
2023/06/19 01:51:30;;;;;;;5.00;4.60;;;;;24.50;99832.00;;;;2069663;28;20222;-58
2023/06/19 01:52:31;;;;;;;5.40;4.83;;;;;24.60;99829.00;;;;2074146;28;20264;-57
2023/06/19 01:53:31;;;;;;;4.80;4.40;;;;;24.60;99824.00;;;;2076231;28;20240;-56
2023/06/19 01:54:31;;;;;;;5.43;4.97;;;;;24.60;99829.00;;;;2074019;28;20693;-56
2023/06/19 01:55:32;;;;;;;7.63;4.50;;;;;24.60;99831.00;;;;2085009;28;20227;-57
2023/06/19 01:56:32;;;;;;;5.20;4.70;;;;;24.60;99832.00;;;;2076844;28;20214;-58
2023/06/19 01:57:33;;;;;;;5.53;4.43;;;;;24.60;99828.00;;;;2073990;28;20224;-56
2023/06/19 01:58:33;;;;;;;5.27;4.83;;;;;24.50;99831.00;;;;2051921;28;20242;-57
2023/06/19 01:59:33;;;;;;;5.37;4.80;;;;;24.50;99821.00;;;;2055923;28;20226;-57
2023/06/19 02:00:37;;;;;;;5.13;4.70;;;;;24.60;99831.00;;;;2084780;28;20224;-57
2023/06/19 02:01:37;;;;;;;5.53;4.93;;;;;24.50;99828.00;;;;2074688;28;20221;-57
2023/06/19 02:02:37;;;;;;;5.27;4.77;;;;;24.50;99832.00;;;;2075523;28;20456;-58
2023/06/19 02:03:38;;;;;;;4.70;4.33;;;;;24.50;99827.00;;;;2083842;28;20209;-58
2023/06/19 02:04:38;;;;;;;5.47;5.00;;;;;24.50;99830.00;;;;2073166;28;20225;-57
2023/06/19 02:05:39;;;;;;;6.60;4.97;;;;;24.50;99827.00;;;;2083671;28;20223;-59
2023/06/19 02:06:39;;;;;;;5.50;5.00;;;;;24.50;99834.00;;;;2082558;28;20228;-58
2023/06/19 02:07:40;;;;;;;5.93;4.77;;;;;24.50;99831.00;;;;2081687;28;20217;-58
2023/06/19 02:08:40;;;;;;;4.80;4.40;;;;;24.40;99825.00;;;;2084049;28;20336;-59
2023/06/19 02:09:41;;;;;;;4.70;4.30;;;;;24.50;99828.00;;;;2073599;28;20224;-57
2023/06/19 02:10:41;;;;;;;5.50;5.00;;;;;24.50;99824.00;;;;2078620;28;20271;-58
2023/06/19 02:11:41;;;;;;;4.70;4.33;;;;;24.50;99822.00;;;;2077461;28;20469;-59
2023/06/19 02:12:42;;;;;;;4.93;4.43;;;;;24.40;99831.00;;;;2082486;28;20681;-58
2023/06/19 02:13:42;;;;;;;5.50;5.10;;;;;24.40;99830.00;;;;2079326;28;21004;-58
2023/06/19 02:14:43;;;;;;;5.40;4.63;;;;;24.40;99832.00;;;;2067803;28;20216;-57
2023/06/19 02:15:43;;;;;;;4.87;4.47;;;;;24.50;99843.00;;;;2083450;28;20240;-59
2023/06/19 02:16:43;;;;;;;5.27;4.77;;;;;24.40;99842.00;;;;2084648;28;20231;-58
2023/06/19 02:17:44;;;;;;;5.13;4.60;;;;;24.50;99841.00;;;;2084778;28;20244;-58
2023/06/19 02:18:44;;;;;;;5.07;4.67;;;;;24.40;99845.00;;;;2083899;28;20213;-57
2023/06/19 02:19:44;;;;;;;4.57;4.17;;;;;24.40;99847.00;;;;2074299;28;20573;-58
2023/06/19 02:20:45;;;;;;;5.03;4.57;;;;;24.40;99849.00;;;;2070599;28;20209;-58
2023/06/19 02:21:45;;;;;;;5.60;5.10;;;;;24.40;99866.00;;;;2065556;28;20340;-59
2023/06/19 02:22:46;;;;;;;5.93;4.80;;;;;24.40;99852.00;;;;2080915;28;20237;-58
2023/06/19 02:23:46;;;;;;;4.67;4.27;;;;;24.40;99852.00;;;;2079311;28;20248;-59
2023/06/19 02:24:46;;;;;;;5.50;5.00;;;;;24.40;99854.00;;;;2037350;28;20233;-58
2023/06/19 02:25:47;;;;;;;5.53;5.07;;;;;24.40;99863.00;;;;2080900;28;20228;-58
2023/06/19 02:26:47;;;;;;;5.53;5.03;;;;;24.40;99854.00;;;;2075897;28;20828;-59
2023/06/19 02:27:47;;;;;;;5.27;4.73;;;;;24.40;99854.00;;;;2076464;28;20243;-58
2023/06/19 02:28:48;;;;;;;5.53;5.03;;;;;24.30;99852.00;;;;2077885;28;20265;-58
2023/06/19 02:29:48;;;;;;;4.90;4.50;;;;;24.40;99854.00;;;;2073261;28;20241;-59
2023/06/19 02:30:48;;;;;;;6.70;5.23;;;;;24.40;99863.00;;;;2075537;28;20228;-59
2023/06/19 02:31:49;;;;;;;5.17;4.77;;;;;24.40;99864.00;;;;2068870;28;21022;-58
2023/06/19 02:32:49;;;;;;;5.73;5.23;;;;;24.40;99863.00;;;;2073824;28;20717;-59
2023/06/19 02:33:50;;;;;;;5.70;5.10;;;;;24.40;99871.00;;;;2083985;28;20221;-59
2023/06/19 02:34:50;;;;;;;5.80;5.30;;;;;24.40;99865.00;;;;2064620;28;20228;-61
2023/06/19 02:35:50;;;;;;;6.43;5.83;;;;;24.40;99865.00;;;;2072556;28;20706;-59
2023/06/19 02:36:51;;;;;;;4.80;4.40;;;;;24.40;99870.00;;;;2083272;28;20585;-58
2023/06/19 02:37:51;;;;;;;5.43;5.03;;;;;24.40;99869.00;;;;2082978;28;20665;-59
2023/06/19 02:38:52;;;;;;;5.47;4.97;;;;;24.40;99878.00;;;;2083814;28;20216;-59
2023/06/19 02:39:52;;;;;;;5.97;5.47;;;;;24.40;99878.00;;;;2072587;28;20295;-59
2023/06/19 02:40:53;;;;;;;5.17;4.67;;;;;24.30;99879.00;;;;2084145;28;20679;-59
2023/06/19 02:41:53;;;;;;;5.60;5.10;;;;;24.30;99876.00;;;;2079648;28;20667;-58
2023/06/19 02:42:53;;;;;;;5.53;5.03;;;;;24.40;99880.00;;;;2083388;28;20262;-59
2023/06/19 02:43:54;;;;;;;4.67;4.20;;;;;24.40;99883.00;;;;2083988;28;20216;-58
2023/06/19 02:44:54;;;;;;;5.83;5.33;;;;;24.30;99884.00;;;;2065602;28;20292;-58
2023/06/19 02:45:54;;;;;;;5.50;5.00;;;;;24.40;99892.00;;;;2078399;28;20212;-58
2023/06/19 02:46:55;;;;;;;5.83;5.30;;;;;24.40;99885.00;;;;2080235;28;20224;-59
2023/06/19 02:47:55;;;;;;;11.10;5.10;;;;;24.50;99890.00;;;;2079093;28;20217;-59
2023/06/19 02:48:55;;;;;;;5.40;5.00;;;;;24.40;99896.00;;;;2081736;28;20232;-60
2023/06/19 02:49:57;;;;;;;6.13;5.13;;;;;24.50;99893.00;;;;2073225;28;20213;-59
2023/06/19 02:50:58;;;;;;;6.70;5.10;;;;;24.40;99906.00;;;;2083828;28;20719;-58
2023/06/19 02:51:58;;;;;;;5.50;5.10;;;;;24.50;99899.00;;;;2082303;28;20224;-58
2023/06/19 02:52:58;;;;;;;6.00;5.40;;;;;24.50;99898.00;;;;2083207;28;21052;-58
2023/06/19 02:53:59;;;;;;;5.20;4.80;;;;;24.40;99902.00;;;;2071385;28;20624;-57
2023/06/19 02:54:59;;;;;;;5.50;5.00;;;;;24.50;99901.00;;;;2057068;28;21006;-59
2023/06/19 02:55:59;;;;;;;6.17;5.57;;;;;24.50;99905.00;;;;2078072;28;20238;-57
2023/06/19 02:57:00;;;;;;;5.70;5.20;;;;;24.50;99913.00;;;;2083660;28;20247;-57
2023/06/19 02:58:00;;;;;;;5.87;5.37;;;;;24.50;99907.00;;;;2084057;28;20221;-57
2023/06/19 02:59:00;;;;;;;5.03;4.63;;;;;24.40;99914.00;;;;2081180;28;20216;-58
2023/06/19 03:00:01;;;;;;;5.50;5.00;;;;;24.50;99911.00;;;;2073496;28;20304;-57
2023/06/19 03:01:01;;;;;;;5.80;5.30;;;;;24.50;99909.00;;;;2083150;28;20229;-58
2023/06/19 03:02:02;;;;;;;5.33;4.93;;;;;24.20;99917.00;;;;2079869;28;20214;-61
2023/06/19 03:03:02;;;;;;;5.00;4.53;;;;;24.50;99923.00;;;;2078324;28;20216;-57
2023/06/19 03:04:03;;;;;;;5.10;4.70;;;;;24.50;99921.00;;;;2083711;28;20598;-58
2023/06/19 03:05:04;;;;;;;5.47;5.07;;;;;24.60;99929.00;;;;2072014;28;20217;-57
2023/06/19 03:06:07;;;;;;;6.07;5.47;;;;;24.60;99921.00;;;;2082216;28;20239;-57
2023/06/19 03:07:08;;;;;;;6.72;6.13;;;;;24.60;99933.00;;;;2073548;28;20393;-57
2023/06/19 03:08:08;;;;;;;6.40;5.70;;;;;24.60;99956.00;;;;2066588;28;20322;-58
2023/06/19 03:09:17;;;;;;;6.37;5.87;;;;;24.50;99925.00;;;;2063300;28;21024;-60
2023/06/19 03:10:18;;;;;;;6.10;5.60;;;;;24.50;99928.00;;;;2080432;28;20231;-58
2023/06/19 03:11:18;;;;;;;6.60;6.00;;;;;24.40;99930.00;;;;2081134;28;20704;-58
2023/06/19 03:12:18;;;;;;;7.47;5.80;;;;;24.60;99928.00;;;;2080622;28;20220;-58
2023/06/19 03:13:19;;;;;;;5.53;4.87;;;;;24.60;99935.00;;;;2078303;28;20634;-58
2023/06/19 03:14:19;;;;;;;5.60;4.90;;;;;24.60;99947.00;;;;2070089;28;20693;-57
2023/06/19 03:15:19;;;;;;;5.90;5.40;;;;;24.50;99955.00;;;;2083306;28;21176;-56
2023/06/19 03:16:20;;;;;;;6.83;5.10;;;;;24.50;99934.00;;;;2071140;28;20899;-56
2023/06/19 03:17:20;;;;;;;6.00;5.50;;;;;24.50;99940.00;;;;2066410;28;20854;-56
2023/06/19 03:18:21;;;;;;;5.13;4.73;;;;;24.50;99943.00;;;;2069222;28;20210;-56
2023/06/19 03:19:21;;;;;;;6.10;5.60;;;;;24.50;99930.00;;;;2073367;28;20235;-56
2023/06/19 03:20:21;;;;;;;5.30;4.90;;;;;24.50;99939.00;;;;2077294;28;20225;-56
2023/06/19 03:21:22;;;;;;;6.20;5.70;;;;;24.70;99941.00;;;;2080973;28;20248;-56
2023/06/19 03:22:22;;;;;;;8.60;6.20;;;;;24.80;99939.00;;;;2082652;28;20244;-56
2023/06/19 03:23:22;;;;;;;7.43;6.73;;;;;24.70;99930.00;;;;2081633;28;20429;-56
2023/06/19 03:24:23;;;;;;;6.37;5.77;;;;;24.70;99941.00;;;;2056724;28;20301;-56
2023/06/19 03:25:23;;;;;;;6.20;5.63;;;;;24.60;99943.00;;;;2064911;28;20676;-56
2023/06/19 03:26:24;;;;;;;5.93;5.43;;;;;24.60;99948.00;;;;2074381;28;20225;-56
2023/06/19 03:27:26;;;;;;;5.90;4.90;;;;;24.60;99945.00;;;;2074731;28;20228;-56
2023/06/19 03:28:26;;;;;;;5.95;5.45;;;;;24.50;99949.00;;;;2074115;28;21231;-56
2023/06/19 03:29:27;;;;;;;5.80;5.30;;;;;24.50;99942.00;;;;2074391;28;20228;-56
2023/06/19 03:30:27;;;;;;;5.50;4.90;;;;;24.50;99957.00;;;;2078164;28;20899;-56
2023/06/19 03:31:28;;;;;;;4.93;4.40;;;;;24.50;99954.00;;;;2073381;28;20709;-56
2023/06/19 03:32:28;;;;;;;6.30;5.70;;;;;24.50;99945.00;;;;2063696;28;20465;-56
2023/06/19 03:33:28;;;;;;;5.70;5.23;;;;;24.60;99953.00;;;;2064708;28;20229;-57
2023/06/19 03:34:29;;;;;;;5.73;5.23;;;;;24.50;99951.00;;;;2073848;28;20228;-56
2023/06/19 03:35:29;;;;;;;4.90;4.50;;;;;24.50;99952.00;;;;2078178;28;20225;-56
2023/06/19 03:36:29;;;;;;;5.43;5.00;;;;;24.60;99951.00;;;;2075640;28;20232;-56
2023/06/19 03:37:32;;;;;;;5.27;4.87;;;;;24.50;99953.00;;;;2079323;28;20243;-56
2023/06/19 03:38:32;;;;;;;5.60;5.10;;;;;24.50;99961.00;;;;2076096;28;20213;-56
2023/06/19 03:39:33;;;;;;;4.90;4.50;;;;;24.50;99965.00;;;;2071895;28;20224;-57
2023/06/19 03:40:33;;;;;;;5.27;4.77;;;;;24.50;99961.00;;;;2083774;28;20217;-56
2023/06/19 03:41:33;;;;;;;5.20;4.70;;;;;24.50;99962.00;;;;2077786;28;20217;-56
2023/06/19 03:42:34;;;;;;;6.07;5.10;;;;;24.50;99964.00;;;;2075818;28;20213;-56
2023/06/19 03:43:35;;;;;;;4.70;4.30;;;;;24.50;99960.00;;;;2082972;28;20299;-56
2023/06/19 03:44:35;;;;;;;4.73;4.33;;;;;24.50;99967.00;;;;2072524;28;20475;-56
2023/06/19 03:45:35;;;;;;;5.17;4.67;;;;;24.50;99966.00;;;;2067634;28;20299;-56
2023/06/19 03:46:36;;;;;;;5.27;4.77;;;;;24.50;99968.00;;;;2074218;28;20226;-56
2023/06/19 03:47:36;;;;;;;4.60;4.20;;;;;24.60;99964.00;;;;2083821;28;20217;-57
2023/06/19 03:48:36;;;;;;;4.73;4.33;;;;;24.60;99966.00;;;;2067680;28;20224;-56
2023/06/19 03:49:36;;;;;;;4.70;4.30;;;;;24.50;99968.00;;;;2059526;28;20218;-56
2023/06/19 03:50:37;;;;;;;4.80;4.30;;;;;24.50;99971.00;;;;2083548;28;20271;-56
2023/06/19 03:51:38;;;;;;;4.53;4.13;;;;;24.50;99975.00;;;;2082265;28;20303;-58
2023/06/19 03:52:38;;;;;;;4.67;4.27;;;;;24.50;99967.00;;;;2078738;28;20229;-58
2023/06/19 03:53:38;;;;;;;5.00;4.50;;;;;24.50;99979.00;;;;2078394;28;20273;-57
2023/06/19 03:54:39;;;;;;;4.63;4.23;;;;;24.50;99976.00;;;;2067143;28;20231;-56
2023/06/19 03:55:39;;;;;;;5.27;4.40;;;;;24.50;99974.00;;;;2077604;28;20240;-56
2023/06/19 03:56:39;;;;;;;4.43;4.03;;;;;24.10;99977.00;;;;2082774;28;20217;-56
2023/06/19 03:57:40;;;;;;;4.77;4.30;;;;;24.50;99981.00;;;;2073715;28;20288;-56
2023/06/19 03:58:40;;;;;;;4.50;4.10;;;;;24.50;99976.00;;;;2069498;28;20308;-56
2023/06/19 03:59:40;;;;;;;4.50;4.03;;;;;24.50;99975.00;;;;2069138;28;20229;-56
2023/06/19 04:00:41;;;;;;;3.70;3.40;;;;;24.50;99972.00;;;;2084467;28;20760;-57
2023/06/19 04:01:41;;;;;;;4.17;3.77;;;;;24.50;99995.00;;;;2075621;28;20340;-56
2023/06/19 04:02:41;;;;;;;4.07;3.67;;;;;24.50;99981.00;;;;2071587;28;20675;-57
2023/06/19 04:03:42;;;;;;;4.40;4.00;;;;;24.50;99989.00;;;;2077582;28;20206;-57
2023/06/19 04:04:43;;;;;;;4.10;3.70;;;;;24.50;99984.00;;;;2073703;28;20297;-57
2023/06/19 04:05:43;;;;;;;4.33;3.83;;;;;24.60;99983.00;;;;2085203;28;20205;-57
2023/06/19 04:06:43;;;;;;;5.93;4.40;;;;;24.90;99988.00;;;;2077935;28;20224;-57
2023/06/19 04:07:44;;;;;;;5.30;4.80;;;;;24.90;99990.00;;;;2085334;28;20221;-57
2023/06/19 04:08:44;;;;;;;4.70;4.30;;;;;24.80;99984.00;;;;2078456;28;20248;-57
2023/06/19 04:09:44;;;;;;;5.70;4.70;;;;;24.60;99981.00;;;;2072655;28;20324;-57
2023/06/19 04:10:45;;;;;;;4.77;4.37;;;;;24.60;99981.00;;;;2084823;28;20248;-57
2023/06/19 04:11:45;;;;;;;4.20;3.80;;;;;24.50;99985.00;;;;2079852;28;20251;-57
2023/06/19 04:12:47;;;;;;;6.57;4.17;;;;;24.50;99985.00;;;;2083531;28;20213;-57
2023/06/19 04:13:48;;;;;;;5.32;4.82;;;;;24.50;99905.00;;;;2062060;28;20226;-57
2023/06/19 04:14:48;;;;;;;5.70;3.70;;;;;24.50;99993.00;;;;2051229;28;20248;-57
2023/06/19 04:15:48;;;;;;;5.60;3.57;;;;;24.50;99993.00;;;;2070273;28;20218;-57
2023/06/19 04:16:49;;;;;;;4.10;3.13;;;;;24.50;99996.00;;;;2078335;28;20267;-56
2023/06/19 04:17:49;;;;;;;3.40;3.20;;;;;24.50;100003.00;;;;2084237;28;20221;-57
2023/06/19 04:18:49;;;;;;;3.63;3.23;;;;;24.50;100001.00;;;;2070858;28;20251;-57
2023/06/19 04:19:50;;;;;;;4.43;3.40;;;;;24.50;100004.00;;;;2058318;28;20230;-57
2023/06/19 04:20:50;;;;;;;3.70;3.40;;;;;24.50;100011.00;;;;2083158;28;20251;-57
2023/06/19 04:21:50;;;;;;;5.00;3.70;;;;;24.70;100003.00;;;;2084865;28;20224;-56
2023/06/19 04:22:51;;;;;;;3.57;3.20;;;;;24.60;100013.00;;;;2084875;28;20303;-56
2023/06/19 04:23:51;;;;;;;4.50;3.40;;;;;24.50;100013.00;;;;2082836;28;20232;-56
2023/06/19 04:24:51;;;;;;;4.50;3.47;;;;;24.50;100007.00;;;;2066791;28;20220;-56
2023/06/19 04:25:51;;;;;;;5.10;3.87;;;;;24.60;100019.00;;;;2084466;28;20216;-56
2023/06/19 04:26:52;;;;;;;3.87;3.30;;;;;24.70;100019.00;;;;2074910;28;20302;-56
2023/06/19 04:27:52;;;;;;;3.53;3.23;;;;;24.60;100019.00;;;;2068927;28;20225;-56
2023/06/19 04:28:53;;;;;;;4.00;3.50;;;;;24.60;100036.00;;;;2083272;28;20592;-56
2023/06/19 04:29:53;;;;;;;3.90;3.33;;;;;24.60;100018.00;;;;2069050;28;20589;-56
2023/06/19 04:31:00;;;;;;;4.53;3.43;;;;;24.70;100041.00;;;;2083137;28;20685;-57
2023/06/19 04:32:02;;;;;;;5.83;3.50;;;;;24.80;100019.00;;;;2071305;28;20221;-57
2023/06/19 04:33:04;;;;;;;3.63;3.33;;;;;24.70;100026.00;;;;2064415;28;21228;-57
2023/06/19 04:34:05;;;;;;;3.92;3.38;;;;;24.60;100024.00;;;;2053776;28;20213;-61
2023/06/19 04:35:08;;;;;;;4.20;3.43;;;;;24.70;100036.00;;;;2063892;28;20206;-57
2023/06/19 04:36:09;;;;;;;3.80;3.30;;;;;24.80;100036.00;;;;2077521;28;20816;-57
2023/06/19 04:37:10;;;;;;;5.00;3.63;;;;;24.70;100028.00;;;;2081899;28;20474;-56
2023/06/19 04:38:10;;;;;;;5.50;3.30;;;;;24.60;100031.00;;;;2080755;28;20451;-57
2023/06/19 04:39:10;;;;;;;5.93;3.33;;;;;24.50;100036.00;;;;2071564;28;20216;-57
2023/06/19 04:40:11;;;;;;;5.20;2.97;;;;;24.50;100028.00;;;;2082934;28;20216;-56
2023/06/19 04:41:11;;;;;;;3.60;3.20;;;;;24.50;100040.00;;;;2081814;28;20210;-57
2023/06/19 04:42:19;;;;;;;3.10;2.80;;;;;24.50;100036.00;;;;2083731;28;20213;-56
2023/06/19 04:43:19;;;;;;;3.58;2.70;;;;;24.50;100047.00;;;;2078665;28;20209;-57
2023/06/19 04:44:19;;;;;;;3.37;3.07;;;;;24.50;100047.00;;;;2059416;28;20210;-56
2023/06/19 04:45:20;;;;;;;3.80;2.70;;;;;24.50;100039.00;;;;2083884;28;20208;-56
2023/06/19 04:46:20;;;;;;;3.60;2.87;;;;;24.50;100049.00;;;;2076615;28;20202;-56
2023/06/19 04:47:22;;;;;;;4.70;4.00;;;;;24.60;100044.00;;;;2070435;28;20205;-56
2023/06/19 04:48:24;;;;;;;4.03;2.75;;;;;24.60;100048.00;;;;2085298;28;20208;-56
2023/06/19 04:49:29;;;;;;;3.45;3.00;;;;;24.50;100049.00;;;;2068638;28;20209;-57
2023/06/19 04:50:30;;;;;;;5.03;3.95;;;;;24.70;100056.00;;;;2074720;28;20367;-56
2023/06/19 04:51:32;;;;;;;21.70;16.97;;;;;24.80;100047.00;;;;2074593;28;20264;-56
2023/06/19 04:52:33;;;;;;;20.40;15.97;;;;;24.70;100044.00;;;;2078713;28;20218;-56
2023/06/19 04:53:33;;;;;;;18.73;16.83;;;;;24.70;100049.00;;;;2078866;28;20461;-56
2023/06/19 04:54:33;;;;;;;26.07;21.93;;;;;24.80;100052.00;;;;2064464;28;20292;-57
2023/06/19 04:55:34;;;;;;;30.47;26.77;;;;;24.70;100049.00;;;;2068269;28;20226;-57
2023/06/19 04:56:34;;;;;;;15.50;12.73;;;;;24.60;100054.00;;;;2075058;28;20265;-57
2023/06/19 04:57:38;;;;;;;12.33;11.03;;;;;24.50;100056.00;;;;2080869;28;20256;-57
2023/06/19 04:58:46;;;;;;;12.98;11.43;;;;;24.50;100051.00;;;;2065275;28;20225;-58
2023/06/19 04:59:46;;;;;;;13.43;10.50;;;;;24.50;100050.00;;;;2060067;28;20257;-57
2023/06/19 05:00:50;;;;;;;12.07;9.77;;;;;24.50;100076.00;;;;2077108;28;20486;-57
2023/06/19 05:01:53;;;;;;;12.60;10.40;;;;;24.40;100064.00;;;;2074665;28;20771;-56
2023/06/19 05:02:59;;;;;;;12.18;10.73;;;;;24.50;100054.00;;;;2065233;28;20731;-56
2023/06/19 05:03:59;;;;;;;15.88;11.05;;;;;24.50;100061.00;;;;2060895;28;20238;-57
2023/06/19 05:05:02;;;;;;;9.70;8.30;;;;;24.40;100057.00;;;;2064489;28;20241;-56